createdAt,value
2022-11-15T00:00:13.296Z,23.65
2022-11-15T00:05:14.920Z,28.42
2022-11-15T00:10:16.857Z,23.13
2022-11-15T00:15:18.379Z,28.90
2022-11-15T00:20:19.771Z,31.52
2022-11-15T00:25:22.235Z,28.95
2022-11-15T00:30:25.601Z,26.38
2022-11-15T00:35:28.244Z,26.02
2022-11-15T00:40:33.032Z,26.98
2022-11-15T00:45:34.557Z,26.33
2022-11-15T00:50:37.168Z,27.42
2022-11-15T00:55:38.615Z,26.05
2022-11-15T01:00:40.160Z,27.13
2022-11-15T01:05:41.644Z,29.50
2022-11-15T01:10:43.075Z,30.30
2022-11-15T01:15:44.561Z,32.30
2022-11-15T01:20:45.989Z,32.75
2022-11-15T01:25:47.411Z,31.67
2022-11-15T01:30:48.989Z,26.77
2022-11-15T01:35:50.358Z,27.30
2022-11-15T01:40:51.790Z,28.88
2022-11-15T01:46:17.224Z,29.20
2022-11-15T01:51:21.309Z,29.25
2022-11-15T01:56:26.351Z,30.45
2022-11-15T02:01:29.467Z,29.67
2022-11-15T02:06:31.432Z,27.95
2022-11-15T02:11:33.312Z,27.60
2022-11-15T02:16:51.650Z,28.50
2022-11-15T02:22:22.658Z,29.48
2022-11-15T02:27:51.721Z,27.42
2022-11-15T02:32:55.587Z,31.42
2022-11-15T02:38:00.382Z,30.65
2022-11-15T02:43:28.362Z,33.95
2022-11-15T02:48:32.641Z,31.75
2022-11-15T02:53:34.382Z,31.67
2022-11-15T02:59:02.889Z,34.10
2022-11-15T03:04:22.460Z,33.80
2022-11-15T03:09:36.880Z,37.58
2022-11-15T03:15:01.375Z,36.35
2022-11-15T03:20:06.956Z,35.10
2022-11-15T03:25:12.136Z,37.67
2022-11-15T03:30:14.697Z,37.78
2022-11-15T03:35:21.470Z,36.75
2022-11-15T03:45:40.620Z,36.20
2022-11-15T03:50:44.378Z,36.05
2022-11-15T03:55:45.941Z,36.60
2022-11-15T04:00:47.385Z,37.55
2022-11-15T04:05:48.928Z,40.78
2022-11-15T04:10:51.091Z,40.75
2022-11-15T04:15:52.750Z,38.33
2022-11-15T04:21:12.784Z,37.97
2022-11-15T04:26:19.220Z,37.90
2022-11-15T04:31:20.582Z,39.58
2022-11-15T04:36:41.298Z,39.35
2022-11-15T04:41:42.732Z,39.35
2022-11-15T04:46:44.134Z,39.55
2022-11-15T04:51:46.069Z,39.92
2022-11-15T04:56:47.500Z,41.13
2022-11-15T05:01:48.903Z,39.05
2022-11-15T05:06:52.480Z,40.90
2022-11-15T05:11:53.919Z,40.42
2022-11-15T05:16:55.283Z,41.70
2022-11-15T05:21:56.839Z,39.45
2022-11-15T05:26:58.429Z,41.25
2022-11-15T05:32:00.428Z,43.22
2022-11-15T05:37:01.877Z,41.83
2022-11-15T05:42:09.520Z,41.75
2022-11-15T05:47:15.273Z,43.50
2022-11-15T05:52:21.272Z,40.33
2022-11-15T05:57:22.875Z,43.23
2022-11-15T06:02:24.378Z,44.25
2022-11-15T06:07:25.886Z,42.63
2022-11-15T06:12:27.411Z,41.13
2022-11-15T06:17:29.952Z,41.92
2022-11-15T06:22:31.336Z,41.80
2022-11-15T06:27:32.743Z,42.70
2022-11-15T06:32:34.160Z,41.67
2022-11-15T06:37:35.552Z,43.67
2022-11-15T06:42:37.026Z,42.22
2022-11-15T06:47:47.293Z,41.70
2022-11-15T06:52:49.241Z,41.92
2022-11-15T06:57:52.527Z,42.47
2022-11-15T07:02:54.136Z,41.58
2022-11-15T07:07:56.728Z,42.78
2022-11-15T07:12:58.130Z,39.05
2022-11-15T07:18:02.132Z,36.70
2022-11-15T07:23:06.565Z,35.83
2022-11-15T07:28:08.221Z,34.13
2022-11-15T07:33:10.061Z,36.88
2022-11-15T07:38:11.452Z,36.65
2022-11-15T07:43:12.968Z,33.60
2022-11-15T07:48:14.393Z,35.15
2022-11-15T07:53:15.893Z,35.17
2022-11-15T07:58:17.272Z,35.13
2022-11-15T08:03:18.725Z,34.15
2022-11-15T08:08:20.434Z,33.58
2022-11-15T08:13:22.274Z,35.67
2022-11-15T08:18:23.950Z,33.22
2022-11-15T08:23:25.544Z,32.70
2022-11-15T08:28:26.912Z,31.67
2022-11-15T08:33:29.161Z,31.23
2022-11-15T08:38:31.748Z,33.38
2022-11-15T08:43:34.354Z,32.17
2022-11-15T08:48:36.150Z,30.80
2022-11-15T08:53:37.723Z,29.35
2022-11-15T08:58:39.635Z,29.23
2022-11-15T09:03:41.623Z,29.52
2022-11-15T09:08:47.816Z,29.83
2022-11-15T09:13:50.042Z,28.15
2022-11-15T09:18:51.397Z,25.50
2022-11-15T09:23:53.351Z,22.80
2022-11-15T09:28:54.791Z,20.88
2022-11-15T09:33:56.781Z,21.23
2022-11-15T09:39:01.126Z,17.90
2022-11-15T09:44:08.170Z,18.13
2022-11-15T09:49:12.716Z,18.25
2022-11-15T10:05:43.146Z,14.05
2022-11-15T10:10:47.894Z,11.93
2022-11-15T10:15:51.486Z,9.35
2022-11-15T10:21:21.027Z,10.10
2022-11-15T10:26:24.547Z,7.65
2022-11-15T10:31:29.610Z,7.70
2022-11-15T10:36:31.170Z,6.78
2022-11-15T10:41:37.223Z,5.40
2022-11-15T10:46:48.876Z,4.63
2022-11-15T10:52:05.254Z,4.38
2022-11-15T10:57:19.464Z,3.95
2022-11-15T11:02:43.184Z,3.88
2022-11-15T11:07:57.459Z,3.90
2022-11-15T11:13:15.257Z,3.00
2022-11-15T11:18:29.467Z,3.10
2022-11-15T11:23:48.641Z,3.17
2022-11-15T11:29:01.851Z,2.80
2022-11-15T11:34:25.244Z,2.28
2022-11-15T11:39:46.060Z,2.33
2022-11-15T11:45:06.383Z,2.15
2022-11-15T11:50:21.412Z,2.38
2022-11-15T11:55:44.017Z,2.17
2022-11-15T12:00:55.520Z,1.90
2022-11-15T12:06:03.396Z,1.45
2022-11-15T12:11:14.352Z,1.50
2022-11-15T12:16:22.882Z,1.70
2022-11-15T12:21:43.224Z,2.25
2022-11-15T12:26:53.729Z,1.92
2022-11-15T12:31:59.144Z,3.28
2022-11-15T12:37:00.638Z,2.50
2022-11-15T12:42:05.114Z,1.45
2022-11-15T12:47:09.466Z,1.40
2022-11-15T12:52:11.130Z,1.42
2022-11-15T12:57:15.229Z,1.65
2022-11-15T13:02:22.696Z,1.45
2022-11-15T13:07:36.399Z,1.63
2022-11-15T13:12:43.478Z,1.77
2022-11-15T13:17:48.807Z,1.38
2022-11-15T13:23:15.721Z,1.55
2022-11-15T13:28:17.032Z,2.25
2022-11-15T13:33:23.091Z,1.58
2022-11-15T13:38:34.937Z,1.00
2022-11-15T13:43:37.142Z,1.33
2022-11-15T13:48:39.361Z,1.25
2022-11-15T13:53:47.453Z,1.10
2022-11-15T13:58:49.168Z,1.17
2022-11-15T14:04:01.632Z,1.08
2022-11-15T14:09:11.926Z,3.00
2022-11-15T14:14:16.408Z,1.50
2022-11-15T14:19:20.740Z,2.15
2022-11-15T14:24:22.501Z,9.52
2022-11-15T14:29:29.580Z,4.10
2022-11-15T14:34:33.265Z,1.70
2022-11-15T14:39:34.606Z,4.40
2022-11-15T14:44:36.092Z,2.67
2022-11-15T14:49:37.584Z,2.40
2022-11-15T14:54:39.339Z,1.73
2022-11-15T14:59:40.794Z,2.63
2022-11-15T15:04:42.186Z,1.95
2022-11-15T15:09:44.185Z,2.30
2022-11-15T15:14:47.530Z,1.23
2022-11-15T15:19:48.943Z,1.80
2022-11-15T15:24:50.313Z,2.70
2022-11-15T15:29:51.886Z,1.65
2022-11-15T15:34:53.455Z,3.05
2022-11-15T15:39:57.513Z,1.80
2022-11-15T15:44:58.921Z,2.45
2022-11-15T15:50:00.424Z,1.88
2022-11-15T15:55:01.786Z,1.50
2022-11-15T16:00:05.253Z,2.10
2022-11-15T16:05:07.320Z,2.28
2022-11-15T16:10:30.568Z,2.05
2022-11-15T16:15:33.115Z,1.95
2022-11-15T16:20:46.334Z,3.13
2022-11-15T16:25:53.870Z,2.00
2022-11-15T16:31:01.407Z,2.05
2022-11-15T16:36:04.192Z,5.95
2022-11-15T16:41:05.695Z,11.98
2022-11-15T16:46:16.462Z,5.90
2022-11-15T16:51:18.062Z,3.25
2022-11-15T16:56:24.577Z,3.10
2022-11-15T17:01:28.973Z,4.40
2022-11-15T17:06:30.507Z,2.63
2022-11-15T17:11:32.081Z,4.10
2022-11-15T17:16:34.243Z,2.20
2022-11-15T17:21:35.690Z,6.10
2022-11-15T17:26:40.766Z,3.55
2022-11-15T17:31:42.512Z,4.07
2022-11-15T17:36:44.024Z,4.63
2022-11-15T17:41:45.412Z,2.80
2022-11-15T17:46:46.787Z,4.18
2022-11-15T17:51:50.137Z,5.10
2022-11-15T17:56:51.800Z,4.57
2022-11-15T18:01:54.040Z,4.38
2022-11-15T18:06:56.407Z,3.42
2022-11-15T18:11:58.623Z,4.00
2022-11-15T18:17:00.009Z,4.28
2022-11-15T18:22:01.852Z,4.63
2022-11-15T18:27:06.851Z,4.65
2022-11-15T18:32:12.527Z,4.55
2022-11-15T18:37:14.028Z,5.37
2022-11-15T18:42:15.390Z,4.53
2022-11-15T18:47:16.924Z,4.70
2022-11-15T18:52:18.381Z,5.85
2022-11-15T18:57:19.778Z,5.88
2022-11-15T19:02:21.270Z,7.07
2022-11-15T19:07:22.736Z,6.72
2022-11-15T19:12:24.350Z,23.63
2022-11-15T19:17:28.053Z,8.90
2022-11-15T19:22:29.900Z,5.40
2022-11-15T19:27:36.872Z,5.68
2022-11-15T19:32:39.928Z,5.68
2022-11-15T19:37:41.373Z,8.20
2022-11-15T19:42:43.364Z,5.20
2022-11-15T19:47:45.387Z,5.45
2022-11-15T19:52:49.984Z,6.82
2022-11-15T19:57:51.624Z,6.50
2022-11-15T20:02:55.744Z,6.28
2022-11-15T20:08:00.156Z,6.32
2022-11-15T20:13:04.127Z,6.25
2022-11-15T20:18:07.978Z,8.15
2022-11-15T20:23:09.658Z,7.53
2022-11-15T20:28:16.561Z,11.10
2022-11-15T20:33:18.284Z,6.57
2022-11-15T20:38:21.738Z,6.65
2022-11-15T20:43:23.468Z,7.53
2022-11-15T20:48:25.005Z,9.27
2022-11-15T20:53:30.544Z,8.10
2022-11-15T20:58:34.020Z,8.07
2022-11-15T21:03:36.150Z,9.40
2022-11-15T21:08:56.537Z,10.27
2022-11-15T21:14:02.062Z,9.18
2022-11-15T21:19:09.030Z,8.43
2022-11-15T21:24:10.564Z,25.52
2022-11-15T21:29:16.979Z,9.02
2022-11-15T21:34:19.234Z,10.23
2022-11-15T21:39:20.614Z,9.50
2022-11-15T21:44:24.986Z,10.40
2022-11-15T21:49:27.406Z,9.55
2022-11-15T21:54:29.825Z,10.02
2022-11-15T21:59:32.276Z,10.30
2022-11-15T22:04:33.827Z,11.52
2022-11-15T22:09:37.135Z,9.82
2022-11-15T22:14:38.598Z,10.48
2022-11-15T22:19:52.254Z,10.45
2022-11-15T22:24:55.148Z,12.57
2022-11-15T22:29:56.816Z,12.43
2022-11-15T22:34:58.810Z,11.27
2022-11-15T22:40:00.390Z,9.68
2022-11-15T22:45:01.856Z,12.13
2022-11-15T22:50:06.429Z,10.60
2022-11-15T22:55:08.276Z,10.75
2022-11-15T23:00:15.669Z,11.63
2022-11-15T23:05:17.147Z,12.15
2022-11-15T23:10:37.138Z,12.63
2022-11-15T23:15:56.897Z,12.80
2022-11-15T23:20:58.297Z,15.35
2022-11-15T23:26:01.128Z,14.07
2022-11-15T23:31:23.362Z,12.52
2022-11-15T23:36:26.751Z,13.82
2022-11-15T23:41:28.153Z,13.73
2022-11-15T23:46:29.761Z,13.80
2022-11-15T23:51:31.324Z,14.68
2022-11-15T23:56:32.963Z,12.93
